Time;durP1;ratioP1;P1;durP2;ratioP2;P2;SDS_P1;SDS_P2;PMS_P1;PMS_P2;Temp;Humidity;BMP_temperature;BMP_pressure;BME280_temperature;BME280_humidity;BME280_pressure;Samples;Min_cycle;Max_cycle;Signal;HPM_P1;HPM_P2
2024/04/16 00:02:25;;;;;;;12.18;2.60;;;;;;;;;;5427521;26;20025;-73
2024/04/16 00:04:51;;;;;;;11.88;2.22;;;;;;;;;;5429914;26;19999;-73
2024/04/16 00:07:18;;;;;;;10.57;1.70;;;;;;;;;;5451099;26;20013;-73
2024/04/16 00:09:45;;;;;;;12.00;2.30;;;;;;;;;;5418609;26;20002;-74
2024/04/16 00:12:11;;;;;;;8.13;1.67;;;;;;;;;;5436730;26;20013;-74
2024/04/16 00:14:38;;;;;;;10.85;1.75;;;;;;;;;;5413542;26;19999;-73
2024/04/16 00:17:04;;;;;;;11.73;1.80;;;;;;;;;;5459995;26;19998;-74
2024/04/16 00:19:31;;;;;;;10.13;1.73;;;;;;;;;;5443667;26;20017;-74
2024/04/16 00:21:57;;;;;;;11.85;2.40;;;;;;;;;;5479262;26;19994;-73
2024/04/16 00:24:24;;;;;;;9.05;1.55;;;;;;;;;;5442475;26;20368;-74
2024/04/16 00:26:51;;;;;;;21.00;2.17;;;;;;;;;;5447230;26;20088;-74
2024/04/16 00:29:17;;;;;;;7.93;1.17;;;;;;;;;;5462906;26;20002;-74
2024/04/16 00:31:44;;;;;;;14.55;1.85;;;;;;;;;;5431909;26;19994;-74
2024/04/16 00:34:10;;;;;;;12.38;2.78;;;;;;;;;;5423803;26;20002;-73
2024/04/16 00:36:37;;;;;;;11.10;1.83;;;;;;;;;;5421004;26;20323;-72
2024/04/16 00:39:04;;;;;;;10.18;1.88;;;;;;;;;;5466068;26;20415;-72
2024/04/16 00:41:30;;;;;;;13.15;1.90;;;;;;;;;;5432048;26;19998;-74
2024/04/16 00:43:57;;;;;;;8.95;1.70;;;;;;;;;;5439279;26;20014;-73
2024/04/16 00:46:23;;;;;;;10.88;2.13;;;;;;;;;;5473536;26;20521;-73
2024/04/16 00:48:50;;;;;;;13.68;2.05;;;;;;;;;;5451026;26;20080;-72
2024/04/16 00:51:16;;;;;;;14.35;2.40;;;;;;;;;;5444062;26;20007;-74
2024/04/16 00:53:43;;;;;;;7.07;1.60;;;;;;;;;;5433035;26;20002;-72
2024/04/16 00:56:10;;;;;;;9.82;1.58;;;;;;;;;;5432724;26;20002;-73
2024/04/16 00:58:39;;;;;;;13.30;2.30;;;;;;;;;;5423143;26;20920;-72
2024/04/16 01:01:06;;;;;;;11.60;1.75;;;;;;;;;;5443966;26;20007;-72
2024/04/16 01:03:33;;;;;;;9.70;1.55;;;;;;;;;;5445610;26;19998;-71
2024/04/16 01:05:59;;;;;;;7.03;1.92;;;;;;;;;;5435587;26;20010;-72
2024/04/16 01:08:26;;;;;;;5.03;1.25;;;;;;;;;;5456905;26;20014;-72
2024/04/16 01:10:52;;;;;;;9.20;1.75;;;;;;;;;;5456869;26;20006;-73
2024/04/16 01:13:19;;;;;;;10.93;1.65;;;;;;;;;;5446338;26;20323;-72
2024/04/16 01:15:45;;;;;;;6.40;1.27;;;;;;;;;;5442134;26;20021;-72
2024/04/16 01:18:12;;;;;;;4.80;1.02;;;;;;;;;;5444119;26;19995;-72
2024/04/16 01:20:39;;;;;;;3.22;1.10;;;;;;;;;;5414692;26;20034;-71
2024/04/16 01:23:05;;;;;;;8.38;1.48;;;;;;;;;;5431512;26;19995;-72
2024/04/16 01:25:35;;;;;;;6.68;1.30;;;;;;;;;;5430258;26;20052;-73
2024/04/16 01:28:02;;;;;;;4.20;0.90;;;;;;;;;;5440201;26;19994;-72
2024/04/16 01:30:28;;;;;;;4.38;1.15;;;;;;;;;;5468834;26;20010;-72
2024/04/16 01:32:55;;;;;;;5.22;1.10;;;;;;;;;;5478972;26;20006;-72
2024/04/16 01:35:21;;;;;;;7.53;1.85;;;;;;;;;;5452551;26;20045;-74
2024/04/16 01:37:48;;;;;;;4.90;1.25;;;;;;;;;;5477901;26;19999;-73
2024/04/16 01:40:15;;;;;;;11.35;2.67;;;;;;;;;;5461757;26;20003;-75
2024/04/16 01:42:41;;;;;;;8.07;1.52;;;;;;;;;;5435954;26;20335;-74
2024/04/16 01:45:08;;;;;;;8.40;1.67;;;;;;;;;;5473043;26;20013;-73
2024/04/16 01:47:34;;;;;;;5.90;1.30;;;;;;;;;;5437057;26;20002;-73
2024/04/16 01:50:01;;;;;;;5.63;1.90;;;;;;;;;;5448497;26;20111;-74
2024/04/16 01:52:27;;;;;;;8.45;1.50;;;;;;;;;;5439900;26;20003;-73
2024/04/16 01:54:54;;;;;;;8.88;1.73;;;;;;;;;;5418732;26;20075;-74
2024/04/16 01:57:20;;;;;;;6.47;1.65;;;;;;;;;;5455712;26;20079;-74
2024/04/16 01:59:50;;;;;;;4.75;1.08;;;;;;;;;;5434448;26;20068;-74
2024/04/16 02:02:16;;;;;;;4.25;1.10;;;;;;;;;;5441939;26;20006;-74
2024/04/16 02:04:43;;;;;;;2.83;0.95;;;;;;;;;;5441650;26;20081;-75
2024/04/16 02:07:10;;;;;;;6.65;1.35;;;;;;;;;;5408655;26;20013;-75
2024/04/16 02:09:36;;;;;;;3.55;1.10;;;;;;;;;;5447814;26;20002;-75
2024/04/16 02:12:03;;;;;;;5.45;0.93;;;;;;;;;;5435480;26;20021;-75
2024/04/16 02:14:29;;;;;;;4.60;1.05;;;;;;;;;;5454502;26;20074;-75
2024/04/16 02:16:56;;;;;;;7.65;1.33;;;;;;;;;;5460761;26;20002;-76
2024/04/16 02:19:23;;;;;;;7.43;1.52;;;;;;;;;;5437248;26;20320;-71
2024/04/16 02:21:49;;;;;;;6.35;1.30;;;;;;;;;;5439038;26;19999;-73
2024/04/16 02:24:16;;;;;;;6.57;1.30;;;;;;;;;;5452904;26;20010;-73
2024/04/16 02:26:42;;;;;;;5.18;1.13;;;;;;;;;;5460336;26;20018;-73
2024/04/16 02:29:08;;;;;;;8.32;1.65;;;;;;;;;;5425512;26;20447;-73
2024/04/16 02:31:35;;;;;;;4.53;1.10;;;;;;;;;;5414416;26;20529;-72
2024/04/16 02:34:02;;;;;;;5.07;1.10;;;;;;;;;;5475745;26;20002;-73
2024/04/16 02:36:28;;;;;;;5.63;1.00;;;;;;;;;;5442560;26;20014;-71
2024/04/16 02:38:55;;;;;;;2.30;0.60;;;;;;;;;;5459831;26;20110;-74
2024/04/16 02:41:21;;;;;;;3.85;0.60;;;;;;;;;;5476432;26;20017;-72
2024/04/16 02:43:48;;;;;;;2.97;0.75;;;;;;;;;;5410502;26;19999;-73
2024/04/16 02:46:14;;;;;;;3.03;0.57;;;;;;;;;;5441157;26;20173;-72
2024/04/16 02:48:41;;;;;;;6.18;0.73;;;;;;;;;;5464467;26;19998;-72
2024/04/16 02:51:11;;;;;;;3.47;0.50;;;;;;;;;;5435019;26;20059;-72
2024/04/16 02:53:38;;;;;;;1.33;0.40;;;;;;;;;;5405872;26;20006;-73
2024/04/16 02:56:04;;;;;;;0.52;0.30;;;;;;;;;;5414925;26;20014;-72
2024/04/16 02:58:31;;;;;;;0.60;0.30;;;;;;;;;;5438693;26;20010;-73
2024/04/16 03:01:03;;;;;;;0.22;0.22;;;;;;;;;;5456276;26;20002;-71
2024/04/16 03:03:31;;;;;;;1.23;0.30;;;;;;;;;;5475273;26;20070;-72
2024/04/16 03:05:58;;;;;;;0.40;0.30;;;;;;;;;;5435140;26;20713;-74
2024/04/16 03:08:24;;;;;;;2.10;0.40;;;;;;;;;;5435630;26;20660;-70
2024/04/16 03:10:51;;;;;;;0.85;0.32;;;;;;;;;;5435659;26;20013;-72
2024/04/16 03:13:17;;;;;;;1.30;0.40;;;;;;;;;;5466376;26;20016;-70
2024/04/16 03:15:44;;;;;;;1.52;0.40;;;;;;;;;;5475877;26;20010;-68
2024/04/16 03:18:10;;;;;;;2.85;0.55;;;;;;;;;;5441493;26;20010;-71
2024/04/16 03:20:37;;;;;;;1.08;0.32;;;;;;;;;;5455898;26;20013;-70
2024/04/16 03:23:03;;;;;;;1.48;0.38;;;;;;;;;;5437414;26;19999;-70
2024/04/16 03:25:30;;;;;;;3.28;0.50;;;;;;;;;;5443705;26;19999;-69
2024/04/16 03:27:56;;;;;;;1.70;0.38;;;;;;;;;;5460881;26;20171;-69
2024/04/16 03:30:23;;;;;;;0.88;0.30;;;;;;;;;;5434829;26;20002;-69
2024/04/16 03:32:50;;;;;;;0.73;0.20;;;;;;;;;;5424809;26;20518;-68
2024/04/16 03:35:16;;;;;;;3.75;0.50;;;;;;;;;;5460121;26;20880;-70
2024/04/16 03:37:44;;;;;;;0.80;0.40;;;;;;;;;;5456288;26;20003;-70
2024/04/16 03:40:12;;;;;;;0.38;0.35;;;;;;;;;;5463705;26;20014;-70
2024/04/16 03:42:38;;;;;;;1.45;0.50;;;;;;;;;;5429639;26;20466;-69
2024/04/16 03:45:05;;;;;;;3.00;0.50;;;;;;;;;;5455693;26;20038;-69
2024/04/16 03:47:31;;;;;;;0.68;0.32;;;;;;;;;;5433623;26;20017;-71
2024/04/16 03:49:58;;;;;;;4.03;0.70;;;;;;;;;;5449641;26;20022;-68
2024/04/16 03:52:25;;;;;;;2.38;0.65;;;;;;;;;;5434018;26;20002;-69
2024/04/16 03:54:51;;;;;;;5.30;0.73;;;;;;;;;;5461727;26;20492;-69
2024/04/16 03:57:18;;;;;;;1.42;0.60;;;;;;;;;;5454559;26;20014;-70
2024/04/16 04:02:40;;;;;;;2.72;0.40;;;;;;;;;;5339892;26;20001;-70
2024/04/16 04:05:07;;;;;;;2.03;0.68;;;;;;;;;;5433100;26;20003;-70
2024/04/16 04:07:34;;;;;;;3.13;0.47;;;;;;;;;;5429655;26;20015;-69
2024/04/16 04:10:00;;;;;;;0.77;0.50;;;;;;;;;;5429131;26;20758;-69
2024/04/16 04:12:27;;;;;;;0.82;0.50;;;;;;;;;;5459521;26;20577;-70
2024/04/16 04:14:54;;;;;;;2.00;0.60;;;;;;;;;;5459929;26;20080;-69
2024/04/16 04:17:20;;;;;;;0.73;0.50;;;;;;;;;;5444254;26;20002;-70
2024/04/16 04:19:46;;;;;;;3.28;0.70;;;;;;;;;;5442850;26;19999;-69
2024/04/16 04:22:13;;;;;;;3.65;0.90;;;;;;;;;;5455883;26;20044;-69
2024/04/16 04:24:39;;;;;;;3.88;0.85;;;;;;;;;;5442677;26;20011;-69
2024/04/16 04:27:06;;;;;;;3.30;1.10;;;;;;;;;;5447888;26;20002;-70
2024/04/16 04:29:33;;;;;;;3.55;0.80;;;;;;;;;;5448175;26;20003;-69
2024/04/16 04:32:00;;;;;;;2.47;0.90;;;;;;;;;;5440772;26;19999;-70
2024/04/16 04:34:27;;;;;;;2.35;0.80;;;;;;;;;;5447514;26;20011;-71
2024/04/16 04:36:54;;;;;;;6.68;1.00;;;;;;;;;;5432444;26;20538;-70
2024/04/16 04:39:21;;;;;;;4.95;1.30;;;;;;;;;;5446587;26;20009;-70
2024/04/16 04:41:47;;;;;;;1.95;0.95;;;;;;;;;;5470695;26;20006;-69
2024/04/16 04:44:14;;;;;;;3.33;0.90;;;;;;;;;;5446976;26;19998;-69
2024/04/16 04:46:40;;;;;;;4.00;1.15;;;;;;;;;;5443885;26;20076;-69
2024/04/16 04:49:07;;;;;;;5.00;1.38;;;;;;;;;;5456857;26;20007;-69
2024/04/16 04:51:33;;;;;;;3.03;1.05;;;;;;;;;;5444361;26;20003;-69
2024/04/16 04:54:00;;;;;;;4.30;1.60;;;;;;;;;;5413482;26;20007;-69
2024/04/16 04:56:28;;;;;;;5.82;1.48;;;;;;;;;;5451763;26;20002;-69
2024/04/16 04:58:54;;;;;;;4.82;1.25;;;;;;;;;;5440768;26;20010;-69
2024/04/16 05:01:21;;;;;;;7.60;1.80;;;;;;;;;;5463719;26;20002;-69
2024/04/16 05:03:47;;;;;;;5.75;1.83;;;;;;;;;;5434036;26;20017;-69
2024/04/16 05:06:14;;;;;;;7.38;2.47;;;;;;;;;;5460520;26;20017;-69
2024/04/16 05:08:41;;;;;;;5.32;2.47;;;;;;;;;;5439986;26;19999;-70
2024/04/16 05:11:07;;;;;;;6.80;2.10;;;;;;;;;;5430291;26;20013;-72
2024/04/16 05:13:34;;;;;;;7.30;2.35;;;;;;;;;;5436077;26;20011;-70
2024/04/16 05:16:01;;;;;;;4.82;2.00;;;;;;;;;;5423889;26;20054;-71
2024/04/16 05:18:28;;;;;;;5.87;2.03;;;;;;;;;;5452060;26;20080;-69
2024/04/16 05:20:56;;;;;;;4.95;1.65;;;;;;;;;;5445530;26;20002;-71
2024/04/16 05:23:23;;;;;;;8.25;1.30;;;;;;;;;;5412124;26;19998;-70
2024/04/16 05:25:53;;;;;;;2.63;1.40;;;;;;;;;;5438964;26;20719;-69
2024/04/16 05:28:21;;;;;;;5.30;1.10;;;;;;;;;;5460442;26;20002;-70
2024/04/16 05:30:47;;;;;;;2.13;0.65;;;;;;;;;;5482710;26;20010;-70
2024/04/16 05:33:14;;;;;;;1.13;0.60;;;;;;;;;;5454910;26;20065;-70
2024/04/16 05:35:40;;;;;;;2.17;0.63;;;;;;;;;;5409616;26;19999;-69
2024/04/16 05:38:07;;;;;;;2.70;0.70;;;;;;;;;;5463414;26;20001;-70
2024/04/16 05:40:33;;;;;;;3.13;0.50;;;;;;;;;;5451949;26;20005;-69
2024/04/16 05:43:00;;;;;;;2.05;0.65;;;;;;;;;;5453979;26;20710;-70
2024/04/16 05:45:27;;;;;;;2.30;0.70;;;;;;;;;;5434774;26;19995;-70
2024/04/16 05:47:53;;;;;;;4.78;0.80;;;;;;;;;;5473070;26;20002;-73
2024/04/16 05:50:20;;;;;;;1.23;0.70;;;;;;;;;;5438522;26;20007;-70
2024/04/16 05:52:46;;;;;;;1.48;0.50;;;;;;;;;;5414943;26;20003;-69
2024/04/16 05:55:13;;;;;;;2.97;0.80;;;;;;;;;;5442255;26;20011;-69
2024/04/16 05:57:39;;;;;;;3.33;0.80;;;;;;;;;;5415884;26;20014;-69
2024/04/16 06:00:06;;;;;;;3.15;0.90;;;;;;;;;;5449818;26;20002;-70
2024/04/16 06:02:33;;;;;;;4.25;0.90;;;;;;;;;;5422520;26;20013;-70
2024/04/16 06:04:59;;;;;;;1.83;0.60;;;;;;;;;;5431201;26;20007;-70
2024/04/16 06:07:26;;;;;;;3.80;1.13;;;;;;;;;;5458327;26;20049;-70
2024/04/16 06:09:52;;;;;;;6.70;1.40;;;;;;;;;;5428517;26;20007;-70
2024/04/16 06:12:19;;;;;;;2.13;1.10;;;;;;;;;;5475738;26;20013;-70
2024/04/16 06:14:45;;;;;;;5.78;1.20;;;;;;;;;;5437290;26;20007;-71
2024/04/16 06:17:12;;;;;;;4.50;1.17;;;;;;;;;;5453283;26;20426;-72
2024/04/16 06:19:38;;;;;;;6.97;1.40;;;;;;;;;;5434717;26;20002;-69
2024/04/16 06:22:05;;;;;;;3.53;1.20;;;;;;;;;;5437470;26;20002;-70
2024/04/16 06:24:32;;;;;;;8.02;1.88;;;;;;;;;;5430786;26;20109;-72
2024/04/16 06:26:58;;;;;;;3.13;1.33;;;;;;;;;;5438693;26;20014;-69
2024/04/16 06:29:25;;;;;;;9.45;1.90;;;;;;;;;;5462756;26;19999;-70
2024/04/16 06:31:51;;;;;;;10.38;2.13;;;;;;;;;;5459479;26;20510;-70
2024/04/16 06:34:18;;;;;;;4.88;1.50;;;;;;;;;;5445693;26;20036;-69
2024/04/16 06:36:44;;;;;;;8.88;2.03;;;;;;;;;;5459595;26;20049;-70
2024/04/16 06:39:11;;;;;;;6.03;2.00;;;;;;;;;;5451969;26;20335;-70
2024/04/16 06:41:38;;;;;;;9.10;1.90;;;;;;;;;;5410573;26;19999;-70
2024/04/16 06:44:04;;;;;;;7.55;1.70;;;;;;;;;;5444645;26;20007;-70
2024/04/16 06:46:31;;;;;;;3.30;1.25;;;;;;;;;;5436060;26;20454;-70
2024/04/16 06:48:57;;;;;;;12.77;1.95;;;;;;;;;;5464553;26;19999;-69
2024/04/16 06:51:38;;;;;;;6.53;1.30;;;;;;;;;;5402143;26;20014;-70
2024/04/16 06:54:05;;;;;;;8.48;1.92;;;;;;;;;;5440783;26;20011;-69
2024/04/16 06:56:32;;;;;;;6.63;1.95;;;;;;;;;;5400070;26;19995;-72
2024/04/16 06:58:59;;;;;;;11.07;2.05;;;;;;;;;;5465321;26;20013;-72
2024/04/16 07:01:26;;;;;;;5.40;1.80;;;;;;;;;;5419391;26;20017;-70
2024/04/16 07:03:53;;;;;;;6.07;2.00;;;;;;;;;;5407563;26;20042;-70
2024/04/16 07:06:20;;;;;;;5.63;1.95;;;;;;;;;;5447293;26;20011;-70
2024/04/16 07:08:46;;;;;;;13.52;2.67;;;;;;;;;;5454395;26;20003;-69
2024/04/16 07:11:13;;;;;;;10.82;2.25;;;;;;;;;;5476025;26;19998;-69
2024/04/16 07:13:43;;;;;;;5.88;1.77;;;;;;;;;;5446606;26;20002;-69
2024/04/16 07:16:10;;;;;;;6.53;1.90;;;;;;;;;;5456561;26;20016;-70
2024/04/16 07:18:37;;;;;;;9.38;2.33;;;;;;;;;;5473805;26;20091;-70
2024/04/16 07:21:04;;;;;;;10.23;2.50;;;;;;;;;;5466523;26;20031;-69
2024/04/16 07:23:30;;;;;;;11.48;2.10;;;;;;;;;;5463415;26;20323;-70
2024/04/16 07:25:57;;;;;;;11.18;2.55;;;;;;;;;;5452062;26;20075;-70
2024/04/16 07:28:23;;;;;;;11.07;2.28;;;;;;;;;;5455532;26;20041;-70
2024/04/16 07:30:51;;;;;;;10.73;2.70;;;;;;;;;;5477238;26;20525;-69
2024/04/16 07:33:32;;;;;;;7.20;1.83;;;;;;;;;;5441745;26;20235;-69
2024/04/16 07:35:59;;;;;;;13.23;2.30;;;;;;;;;;5447216;26;20642;-69
2024/04/16 07:38:25;;;;;;;13.75;2.67;;;;;;;;;;5460719;26;20467;-70
2024/04/16 07:40:53;;;;;;;9.10;2.33;;;;;;;;;;5445052;26;20003;-70
2024/04/16 07:43:19;;;;;;;7.90;2.47;;;;;;;;;;5443640;26;21592;-69
2024/04/16 07:45:46;;;;;;;12.02;3.03;;;;;;;;;;5420184;26;20754;-70
2024/04/16 07:48:13;;;;;;;9.68;2.30;;;;;;;;;;5429808;26;20244;-69
2024/04/16 07:50:39;;;;;;;11.40;2.38;;;;;;;;;;5441562;26;19999;-69
2024/04/16 07:53:06;;;;;;;7.72;1.70;;;;;;;;;;5468875;26;19998;-70
2024/04/16 07:55:32;;;;;;;9.20;2.10;;;;;;;;;;5445260;26;20447;-72
2024/04/16 07:57:59;;;;;;;11.38;1.60;;;;;;;;;;5447269;26;20031;-70
2024/04/16 08:00:28;;;;;;;10.75;1.50;;;;;;;;;;5449082;26;20003;-70
2024/04/16 08:02:54;;;;;;;3.03;1.10;;;;;;;;;;5443972;26;20002;-70
2024/04/16 08:05:21;;;;;;;5.07;1.15;;;;;;;;;;5447243;26;20003;-70
2024/04/16 08:07:48;;;;;;;5.68;1.85;;;;;;;;;;5455266;26;20370;-71
2024/04/16 08:10:14;;;;;;;6.85;1.60;;;;;;;;;;5438110;26;20444;-70
2024/04/16 08:12:41;;;;;;;6.65;1.42;;;;;;;;;;5459130;26;20715;-71
2024/04/16 08:15:08;;;;;;;4.93;1.35;;;;;;;;;;5435718;26;20036;-69
2024/04/16 08:17:34;;;;;;;9.23;1.95;;;;;;;;;;5461975;26;21231;-75
2024/04/16 08:20:01;;;;;;;8.40;2.83;;;;;;;;;;5453179;26;20011;-74
2024/04/16 08:22:29;;;;;;;11.50;1.90;;;;;;;;;;5464001;26;20046;-75
2024/04/16 08:24:55;;;;;;;5.13;1.55;;;;;;;;;;5455518;26;20058;-75
2024/04/16 08:27:23;;;;;;;11.40;2.08;;;;;;;;;;5440135;26;20366;-75
2024/04/16 08:29:51;;;;;;;6.88;2.45;;;;;;;;;;5476573;26;20014;-75
2024/04/16 08:32:18;;;;;;;8.15;2.10;;;;;;;;;;5436768;26;20034;-75
2024/04/16 08:34:45;;;;;;;9.48;2.25;;;;;;;;;;5478596;26;20017;-75
2024/04/16 08:37:12;;;;;;;7.32;1.90;;;;;;;;;;5425869;26;19998;-73
2024/04/16 08:39:39;;;;;;;6.95;1.23;;;;;;;;;;5435557;26;20006;-75
2024/04/16 08:42:07;;;;;;;8.13;1.70;;;;;;;;;;5444560;26;20387;-75
2024/04/16 08:44:34;;;;;;;7.97;1.48;;;;;;;;;;5459702;26;20079;-76
2024/04/16 08:47:01;;;;;;;10.35;1.50;;;;;;;;;;5460088;26;19998;-76
2024/04/16 08:49:29;;;;;;;8.63;1.40;;;;;;;;;;5445796;26;20018;-74
2024/04/16 08:51:55;;;;;;;6.10;1.08;;;;;;;;;;5437278;26;20039;-74
2024/04/16 08:54:23;;;;;;;6.78;1.08;;;;;;;;;;5436303;26;20779;-74
2024/04/16 08:56:50;;;;;;;9.68;1.23;;;;;;;;;;5431976;26;20114;-74
2024/04/16 08:59:17;;;;;;;3.08;0.80;;;;;;;;;;5429854;26;20003;-74
2024/04/16 09:01:53;;;;;;;0.70;0.50;;;;;;;;;;5431842;26;20461;-74
2024/04/16 09:04:19;;;;;;;6.57;1.13;;;;;;;;;;5461539;26;20070;-74
2024/04/16 09:06:47;;;;;;;3.30;0.80;;;;;;;;;;5424287;26;20047;-74
2024/04/16 09:09:13;;;;;;;4.88;0.73;;;;;;;;;;5446034;26;20102;-74
2024/04/16 09:11:40;;;;;;;2.65;0.60;;;;;;;;;;5467739;26;19999;-74
2024/04/16 09:14:08;;;;;;;;;;;;;;;;;;5443925;26;20018;-74
2024/04/16 09:16:37;;;;;;;5.25;0.75;;;;;;;;;;5455602;26;19931;-74
2024/04/16 09:19:04;;;;;;;5.82;0.77;;;;;;;;;;5456282;26;20531;-74
2024/04/16 09:21:32;;;;;;;4.30;1.00;;;;;;;;;;5447606;26;20018;-74
2024/04/16 09:24:00;;;;;;;3.55;0.90;;;;;;;;;;5460658;26;20002;-75
2024/04/16 09:26:27;;;;;;;3.42;0.82;;;;;;;;;;5454382;26;20786;-75
2024/04/16 09:28:54;;;;;;;6.68;1.00;;;;;;;;;;5468857;26;20112;-75
2024/04/16 09:31:21;;;;;;;5.07;0.93;;;;;;;;;;5401599;26;20007;-75
2024/04/16 09:33:48;;;;;;;3.53;0.75;;;;;;;;;;5444523;26;19998;-75
2024/04/16 09:36:15;;;;;;;2.35;0.77;;;;;;;;;;5437151;26;20002;-75
2024/04/16 09:38:43;;;;;;;4.20;0.80;;;;;;;;;;5458745;26;20003;-75
2024/04/16 09:41:10;;;;;;;3.20;1.00;;;;;;;;;;5460534;26;20017;-75
2024/04/16 09:43:41;;;;;;;4.78;0.70;;;;;;;;;;5458728;26;20013;-75
2024/04/16 09:46:11;;;;;;;8.85;1.23;;;;;;;;;;5422487;26;20002;-75
2024/04/16 09:48:38;;;;;;;7.10;1.00;;;;;;;;;;5439266;26;20771;-75
2024/04/16 09:51:08;;;;;;;5.53;0.90;;;;;;;;;;5434689;26;20717;-74
2024/04/16 09:53:35;;;;;;;6.97;2.05;;;;;;;;;;5441988;26;20034;-75
2024/04/16 09:56:04;;;;;;;3.28;0.60;;;;;;;;;;5447583;26;20471;-75
2024/04/16 09:58:34;;;;;;;4.88;0.75;;;;;;;;;;5462090;26;19999;-76
2024/04/16 10:01:01;;;;;;;4.05;1.00;;;;;;;;;;5408675;26;20062;-75
2024/04/16 10:03:29;;;;;;;5.20;0.80;;;;;;;;;;5404817;26;20828;-74
2024/04/16 10:05:56;;;;;;;6.03;1.00;;;;;;;;;;5434334;26;20005;-73
2024/04/16 10:08:23;;;;;;;3.17;0.77;;;;;;;;;;5440385;26;19999;-73
2024/04/16 10:10:51;;;;;;;5.10;0.70;;;;;;;;;;5467419;26;20050;-73
2024/04/16 10:13:18;;;;;;;7.07;0.50;;;;;;;;;;5436536;26;20013;-73
2024/04/16 10:15:45;;;;;;;5.57;1.00;;;;;;;;;;5410196;26;20050;-73
2024/04/16 10:18:12;;;;;;;0.73;0.40;;;;;;;;;;5421799;26;19995;-73
2024/04/16 10:20:48;;;;;;;1.88;0.55;;;;;;;;;;5462039;26;20016;-74
2024/04/16 10:23:16;;;;;;;1.60;0.57;;;;;;;;;;5444142;26;20009;-74
2024/04/16 10:25:52;;;;;;;3.30;0.60;;;;;;;;;;5459438;26;20021;-74
2024/04/16 10:28:26;;;;;;;2.88;0.70;;;;;;;;;;5453144;26;20098;-74
2024/04/16 10:30:59;;;;;;;2.85;0.70;;;;;;;;;;5437751;26;19998;-75
2024/04/16 10:33:26;;;;;;;3.75;0.80;;;;;;;;;;5450494;26;20002;-74
2024/04/16 10:35:54;;;;;;;3.38;0.80;;;;;;;;;;5428566;26;20481;-74
2024/04/16 10:38:20;;;;;;;2.42;0.80;;;;;;;;;;5447188;26;20468;-74
2024/04/16 10:40:56;;;;;;;1.70;0.60;;;;;;;;;;5439802;26;20003;-74
2024/04/16 10:43:26;;;;;;;1.58;0.60;;;;;;;;;;5419977;26;20002;-74
2024/04/16 10:45:53;;;;;;;2.97;0.65;;;;;;;;;;5439182;26;20022;-73
2024/04/16 10:48:20;;;;;;;2.22;0.50;;;;;;;;;;5454617;26;20075;-74
2024/04/16 10:50:47;;;;;;;2.28;0.55;;;;;;;;;;5450519;26;19994;-74
2024/04/16 10:53:14;;;;;;;1.70;0.30;;;;;;;;;;5422659;26;20015;-75
2024/04/16 10:55:41;;;;;;;3.42;0.70;;;;;;;;;;5452834;26;20015;-73
2024/04/16 10:58:09;;;;;;;1.90;0.55;;;;;;;;;;5439302;26;20363;-75
2024/04/16 11:00:36;;;;;;;4.00;0.60;;;;;;;;;;5430781;26;20011;-74
2024/04/16 11:03:02;;;;;;;2.28;0.50;;;;;;;;;;5463657;26;20014;-74
2024/04/16 11:05:29;;;;;;;1.67;0.60;;;;;;;;;;5444869;26;19994;-74
2024/04/16 11:07:55;;;;;;;2.88;0.40;;;;;;;;;;5474294;26;20018;-74
2024/04/16 11:10:22;;;;;;;2.17;0.60;;;;;;;;;;5437098;26;19995;-74
2024/04/16 11:12:48;;;;;;;2.85;0.55;;;;;;;;;;5438179;26;20006;-76
2024/04/16 11:15:17;;;;;;;2.13;0.60;;;;;;;;;;5457390;26;20010;-74
2024/04/16 11:17:44;;;;;;;1.23;0.45;;;;;;;;;;5422212;26;20014;-75
2024/04/16 11:20:11;;;;;;;2.58;0.60;;;;;;;;;;5454900;26;20010;-76
2024/04/16 11:22:38;;;;;;;3.47;0.50;;;;;;;;;;5442801;26;20022;-76
2024/04/16 11:25:14;;;;;;;1.50;0.47;;;;;;;;;;5454101;26;20002;-76
2024/04/16 11:27:44;;;;;;;1.60;0.50;;;;;;;;;;5415127;26;20013;-76
2024/04/16 11:30:12;;;;;;;1.52;0.52;;;;;;;;;;5450819;26;20002;-74
2024/04/16 11:32:40;;;;;;;1.23;0.60;;;;;;;;;;5440167;26;19999;-74
2024/04/16 11:35:07;;;;;;;2.25;0.63;;;;;;;;;;5439482;26;20018;-74
2024/04/16 11:37:38;;;;;;;1.90;0.30;;;;;;;;;;5404029;26;20014;-75
2024/04/16 11:40:08;;;;;;;1.77;0.30;;;;;;;;;;5444666;26;20003;-76
2024/04/16 11:42:36;;;;;;;0.60;0.38;;;;;;;;;;5427231;26;20018;-76
2024/04/16 11:45:02;;;;;;;1.83;0.55;;;;;;;;;;5450933;26;20047;-75
2024/04/16 11:47:29;;;;;;;1.98;0.40;;;;;;;;;;5467704;26;19998;-77
2024/04/16 11:50:00;;;;;;;2.47;0.30;;;;;;;;;;5433372;26;20010;-77
2024/04/16 11:52:27;;;;;;;3.22;0.70;;;;;;;;;;5405288;26;20006;-77
2024/04/16 11:54:53;;;;;;;1.98;0.40;;;;;;;;;;5399003;26;20461;-76
2024/04/16 11:57:20;;;;;;;1.52;0.40;;;;;;;;;;5417280;26;20343;-74
2024/04/16 11:59:47;;;;;;;3.42;0.47;;;;;;;;;;5410842;26;20642;-75
2024/04/16 12:02:14;;;;;;;1.85;0.30;;;;;;;;;;5408009;26;20015;-76
2024/04/16 12:04:41;;;;;;;2.63;0.50;;;;;;;;;;5419197;26;20325;-76
2024/04/16 12:07:08;;;;;;;2.45;0.50;;;;;;;;;;5364601;26;20008;-75
2024/04/16 12:09:35;;;;;;;1.73;0.40;;;;;;;;;;5420753;26;20008;-76
2024/04/16 12:12:01;;;;;;;2.35;0.60;;;;;;;;;;5421052;26;20006;-75
2024/04/16 12:14:28;;;;;;;1.50;0.40;;;;;;;;;;5429993;26;19999;-77
2024/04/16 12:16:54;;;;;;;2.13;0.43;;;;;;;;;;5414001;26;20014;-78
2024/04/16 12:19:21;;;;;;;2.55;0.40;;;;;;;;;;5400880;26;20004;-75
2024/04/16 12:21:47;;;;;;;4.53;0.73;;;;;;;;;;5441377;26;19998;-77
2024/04/16 12:24:14;;;;;;;6.05;0.50;;;;;;;;;;5404708;26;20012;-77
2024/04/16 12:26:40;;;;;;;0.88;0.38;;;;;;;;;;5418268;26;20331;-77
2024/04/16 12:29:07;;;;;;;0.85;0.30;;;;;;;;;;5427640;26;20007;-77
2024/04/16 12:31:34;;;;;;;3.72;0.52;;;;;;;;;;5421090;26;19995;-77
2024/04/16 12:34:01;;;;;;;1.70;0.52;;;;;;;;;;5437394;26;20017;-77
2024/04/16 12:36:29;;;;;;;;;;;;;;;;;;5451072;26;20002;-77
2024/04/16 12:38:56;;;;;;;3.00;0.55;;;;;;;;;;5434268;26;19925;-79
2024/04/16 12:41:23;;;;;;;2.40;0.70;;;;;;;;;;5432631;26;20014;-78
2024/04/16 12:43:49;;;;;;;1.80;0.40;;;;;;;;;;5421499;26;20002;-77
2024/04/16 12:46:16;;;;;;;3.88;0.50;;;;;;;;;;5455703;26;19998;-76
2024/04/16 12:48:43;;;;;;;1.38;0.40;;;;;;;;;;5450989;26;20002;-76
2024/04/16 12:51:09;;;;;;;2.53;0.60;;;;;;;;;;5442736;26;20082;-76
2024/04/16 12:53:36;;;;;;;2.42;0.70;;;;;;;;;;5424934;26;20631;-76
2024/04/16 12:56:03;;;;;;;1.05;0.40;;;;;;;;;;5477971;26;20002;-77
2024/04/16 12:58:29;;;;;;;1.02;0.43;;;;;;;;;;5451348;26;20006;-73
2024/04/16 13:00:57;;;;;;;1.63;0.40;;;;;;;;;;5445099;26;20006;-73
2024/04/16 13:03:24;;;;;;;1.23;0.40;;;;;;;;;;5464191;26;20036;-74
2024/04/16 13:05:50;;;;;;;1.27;0.40;;;;;;;;;;5446221;26;19994;-76
2024/04/16 13:08:17;;;;;;;1.00;0.38;;;;;;;;;;5455412;26;20030;-75
2024/04/16 13:10:49;;;;;;;2.78;0.50;;;;;;;;;;5468880;26;20002;-75
2024/04/16 13:13:16;;;;;;;0.73;0.40;;;;;;;;;;5445537;26;19999;-75
2024/04/16 13:15:42;;;;;;;4.82;0.63;;;;;;;;;;5461741;26;20014;-75
2024/04/16 13:18:09;;;;;;;4.22;1.20;;;;;;;;;;5445953;26;20783;-75
2024/04/16 13:20:36;;;;;;;1.67;0.60;;;;;;;;;;5416646;26;20010;-75
2024/04/16 13:23:02;;;;;;;2.08;0.60;;;;;;;;;;5444907;26;20033;-76
2024/04/16 13:25:29;;;;;;;0.65;0.40;;;;;;;;;;5403774;26;20010;-75
2024/04/16 13:27:55;;;;;;;0.30;0.30;;;;;;;;;;5473873;26;20025;-77
2024/04/16 13:30:22;;;;;;;1.42;0.43;;;;;;;;;;5442436;26;20080;-77
2024/04/16 13:32:49;;;;;;;2.03;0.57;;;;;;;;;;5456177;26;20015;-77
2024/04/16 13:35:15;;;;;;;1.20;0.52;;;;;;;;;;5431565;26;20068;-77
2024/04/16 13:37:42;;;;;;;1.30;0.50;;;;;;;;;;5438599;26;20010;-75
2024/04/16 13:40:09;;;;;;;0.45;0.40;;;;;;;;;;5466462;26;20343;-74
2024/04/16 13:42:37;;;;;;;0.77;0.35;;;;;;;;;;5440733;26;20018;-75
2024/04/16 13:45:05;;;;;;;1.90;0.50;;;;;;;;;;5446505;26;19995;-76
2024/04/16 13:47:31;;;;;;;1.02;0.57;;;;;;;;;;5432034;26;20321;-73
2024/04/16 13:49:58;;;;;;;0.82;0.40;;;;;;;;;;5426352;26;19995;-76
2024/04/16 13:52:24;;;;;;;3.13;0.50;;;;;;;;;;5456533;26;20014;-75
2024/04/16 13:54:51;;;;;;;2.10;0.70;;;;;;;;;;5474698;26;20002;-76
2024/04/16 13:57:17;;;;;;;3.45;0.60;;;;;;;;;;5496014;26;20029;-74
2024/04/16 13:59:44;;;;;;;0.40;0.30;;;;;;;;;;5417931;26;19998;-75
2024/04/16 14:02:10;;;;;;;1.50;0.40;;;;;;;;;;5447306;26;20018;-76
2024/04/16 14:04:37;;;;;;;1.95;0.50;;;;;;;;;;5426286;26;20510;-77
2024/04/16 14:07:03;;;;;;;1.40;0.50;;;;;;;;;;5428443;26;20046;-75
2024/04/16 14:09:30;;;;;;;2.83;0.40;;;;;;;;;;5447512;26;20003;-76
2024/04/16 14:11:56;;;;;;;1.05;0.40;;;;;;;;;;5468132;26;20071;-75
2024/04/16 14:14:25;;;;;;;0.90;0.38;;;;;;;;;;5464056;26;20050;-73
2024/04/16 14:16:51;;;;;;;0.75;0.40;;;;;;;;;;5426666;26;20010;-76
2024/04/16 14:19:18;;;;;;;1.65;0.50;;;;;;;;;;5459921;26;19998;-76
2024/04/16 14:21:47;;;;;;;1.10;0.60;;;;;;;;;;5473195;26;20071;-75
2024/04/16 14:24:13;;;;;;;3.78;0.50;;;;;;;;;;5434649;26;20075;-76
2024/04/16 14:26:40;;;;;;;1.95;0.47;;;;;;;;;;5441757;26;20468;-76
2024/04/16 14:29:07;;;;;;;2.58;0.52;;;;;;;;;;5461821;26;20346;-75
2024/04/16 14:31:33;;;;;;;1.38;0.63;;;;;;;;;;5449912;26;20009;-75
2024/04/16 14:34:00;;;;;;;2.95;0.40;;;;;;;;;;5460115;26;20018;-75
2024/04/16 14:36:26;;;;;;;0.80;0.38;;;;;;;;;;5476724;26;20005;-75
2024/04/16 14:38:53;;;;;;;1.08;0.40;;;;;;;;;;5428377;26;20569;-76
2024/04/16 14:41:19;;;;;;;0.40;0.40;;;;;;;;;;5413878;26;20482;-76
2024/04/16 14:43:46;;;;;;;1.42;0.65;;;;;;;;;;5441424;26;20088;-75
2024/04/16 14:46:12;;;;;;;1.40;0.50;;;;;;;;;;5440050;26;20010;-75